ENZV

Stavanger/Sola Airport

Airport
ICAO code
ENZV
IATA Code
SVG
Summary
ICAO Region
EUR
ICAO Territory
Location

Sola,

Serving
Stavanger
Elevation
29 ft
Coordinates
58° 52' 42" N , 5° 38' 8" E
KCC
Metar
Observation
ENZV 272120Z 15007KT 4500 -DZ SCT004 BKN008 OVC021 03/02 Q1026
Station
Stavanger / Sola
Date/Time
2023-01-27 21:20:00
Wind direction
150°
Wind speed
07 kts
Lowest cloud amount
scattered clouds
Temperature
3°C
Dew point
2°C
Humidity
93%
QNH
1026 hPa
Weather condition
n/a

Description

International airport serving Stavanger and southwest Norway, located in Sola, Norway, 6 nm southwest of Stavanger.

Climatology

Temperate Marine climate/Oceanic climate (Köppen climate classification Cfb). Moderately cool summer and comparatively warm winter with a temperature range of only 14°C. Prevailing south-westerly winds from the Atlantic Ocean.

Runways

Designator Length Width Surface Rops
11/29 2449 45 ASP Yes/Yes
18/36 2856 60 ASP Yes/Yes

Airport map

Aerial View

SKYbrary Partners:

Safety knowledge contributed by: